createdAt,value
2023-01-05T00:00:55.538Z,99706.22
2023-01-05T00:03:22.067Z,99692.91
2023-01-05T00:05:48.437Z,99696.16
2023-01-05T00:08:14.748Z,99688.22
2023-01-05T00:10:59.746Z,99702.84
2023-01-05T00:13:44.756Z,99697.31
2023-01-05T00:16:33.049Z,99695.97
2023-01-05T00:19:18.151Z,99683.00
2023-01-05T00:22:03.018Z,99686.97
2023-01-05T00:24:30.546Z,99688.56
2023-01-05T00:26:59.845Z,99685.75
2023-01-05T00:29:26.192Z,99690.84
2023-01-05T00:31:52.577Z,99696.34
2023-01-05T00:34:20.863Z,99694.91
2023-01-05T00:36:47.180Z,99683.50
2023-01-05T00:39:13.592Z,99679.03
2023-01-05T00:41:39.913Z,99675.22
2023-01-05T00:44:06.406Z,99681.69
2023-01-05T00:46:32.749Z,99674.84
2023-01-05T00:48:59.051Z,99675.22
2023-01-05T00:51:25.401Z,99681.22
2023-01-05T00:53:51.742Z,99691.81
2023-01-05T00:56:18.136Z,99706.34
2023-01-05T00:58:44.503Z,99693.50
2023-01-05T01:01:12.803Z,99711.50
2023-01-05T01:03:39.623Z,99703.19
2023-01-05T01:06:06.464Z,99707.19
2023-01-05T01:08:32.811Z,99712.19
2023-01-05T01:11:07.284Z,99703.19
2023-01-05T01:13:33.820Z,99709.53
2023-01-05T01:16:08.284Z,99714.97
2023-01-05T01:18:35.417Z,99715.97
2023-01-05T01:21:02.117Z,99714.06
2023-01-05T01:23:28.911Z,99711.41
2023-01-05T01:25:56.419Z,99718.25
2023-01-05T01:28:23.884Z,99712.38
2023-01-05T01:30:50.306Z,99698.56
2023-01-05T01:33:16.761Z,99715.50
2023-01-05T01:35:43.349Z,99711.88
2023-01-05T01:38:09.736Z,99702.63
2023-01-05T01:40:42.446Z,99722.22
2023-01-05T01:43:19.722Z,99720.69
2023-01-05T01:45:46.787Z,99722.03
2023-01-05T01:48:18.420Z,99714.19
2023-01-05T01:50:50.868Z,99729.09
2023-01-05T01:53:26.883Z,99738.47
2023-01-05T01:55:55.513Z,99734.38
2023-01-05T01:58:28.030Z,99731.97
2023-01-05T02:00:55.980Z,99722.72
2023-01-05T02:03:22.941Z,99727.41
2023-01-05T02:05:49.237Z,99724.03
2023-01-05T02:08:16.122Z,99705.91
2023-01-05T02:11:25.598Z,99706.63
2023-01-05T02:13:58.548Z,99727.78
2023-01-05T02:17:02.797Z,99716.97
2023-01-05T02:19:44.650Z,99751.22
2023-01-05T02:22:10.956Z,99738.47
2023-01-05T02:25:06.941Z,99731.28
2023-01-05T02:27:43.665Z,99736.06
2023-01-05T02:30:34.600Z,99718.75
2023-01-05T02:33:27.466Z,99726.47
2023-01-05T02:36:07.065Z,99725.75
2023-01-05T02:38:38.722Z,99730.91
2023-01-05T02:41:20.715Z,99733.94
2023-01-05T02:43:47.429Z,99719.75
2023-01-05T02:46:13.821Z,99737.31
2023-01-05T02:48:42.072Z,99730.56
2023-01-05T02:51:16.205Z,99729.03
2023-01-05T02:53:49.485Z,99729.16
2023-01-05T02:56:23.136Z,99728.91
2023-01-05T02:58:56.696Z,99739.59
2023-01-05T03:01:29.353Z,99741.06
2023-01-05T03:04:08.365Z,99745.75
2023-01-05T03:06:46.724Z,99722.66
2023-01-05T03:09:17.419Z,99722.41
2023-01-05T03:12:18.569Z,99725.56
2023-01-05T03:14:53.077Z,99734.91
2023-01-05T03:17:36.219Z,99736.59
2023-01-05T03:20:04.782Z,99734.19
2023-01-05T03:22:52.243Z,99739.81
2023-01-05T03:25:40.075Z,99740.34
2023-01-05T03:28:31.941Z,99742.63
2023-01-05T03:31:38.833Z,99753.44
2023-01-05T03:34:32.593Z,99748.03
2023-01-05T03:37:10.140Z,99758.34
2023-01-05T03:39:42.764Z,99767.50
2023-01-05T03:42:11.462Z,99755.34
2023-01-05T03:44:39.958Z,99760.41
2023-01-05T03:47:10.341Z,99763.03
2023-01-05T03:49:37.550Z,99758.31
2023-01-05T03:52:05.099Z,99766.28
2023-01-05T03:54:34.911Z,99747.03
2023-01-05T03:57:01.264Z,99760.75
2023-01-05T03:59:28.087Z,99750.78
2023-01-05T04:01:54.613Z,99749.22
2023-01-05T04:04:23.052Z,99752.59
2023-01-05T04:06:49.658Z,99761.25
2023-01-05T04:09:16.195Z,99757.75
2023-01-05T04:11:45.013Z,99758.31
2023-01-05T04:14:12.375Z,99764.22
2023-01-05T04:16:38.851Z,99777.22
2023-01-05T04:19:12.400Z,99776.75
2023-01-05T04:21:38.886Z,99775.44
2023-01-05T04:24:05.588Z,99786.84
2023-01-05T04:26:34.688Z,99782.28
2023-01-05T04:29:01.237Z,99776.50
2023-01-05T04:31:28.105Z,99777.13
2023-01-05T04:33:56.181Z,99763.41
2023-01-05T04:36:24.103Z,99769.97
2023-01-05T04:38:51.163Z,99762.78
2023-01-05T04:41:17.748Z,99774.56
2023-01-05T04:43:47.634Z,99788.03
2023-01-05T04:46:14.672Z,99783.94
2023-01-05T04:48:43.300Z,99789.31
2023-01-05T04:51:10.135Z,99789.84
2023-01-05T04:53:38.307Z,99797.56
2023-01-05T04:56:06.791Z,99793.44
2023-01-05T04:58:38.963Z,99797.91
2023-01-05T05:01:05.461Z,99791.13
2023-01-05T05:03:34.780Z,99795.47
2023-01-05T05:06:03.799Z,99801.25
2023-01-05T05:08:31.933Z,99781.66
2023-01-05T05:11:00.676Z,99805.72
2023-01-05T05:13:29.323Z,99795.56
2023-01-05T05:15:55.811Z,99800.38
2023-01-05T05:18:22.263Z,99807.47
2023-01-05T05:20:52.084Z,99806.41
2023-01-05T05:23:20.402Z,99807.47
2023-01-05T05:25:51.111Z,99800.03
2023-01-05T05:28:19.899Z,99803.63
2023-01-05T05:30:49.064Z,99807.72
2023-01-05T05:33:15.446Z,99806.50
2023-01-05T05:35:41.771Z,99811.78
2023-01-05T05:38:08.091Z,99812.16
2023-01-05T05:40:34.405Z,99823.44
2023-01-05T05:43:00.747Z,99820.81
2023-01-05T05:45:27.041Z,99819.94
2023-01-05T05:47:53.371Z,99830.53
2023-01-05T05:50:19.730Z,99819.25
2023-01-05T05:52:47.160Z,99825.50
2023-01-05T05:55:13.651Z,99815.53
2023-01-05T05:57:40.064Z,99821.63
2023-01-05T06:00:07.049Z,99824.03
2023-01-05T06:02:39.762Z,99829.91
2023-01-05T06:05:06.886Z,99818.63
2023-01-05T06:07:33.187Z,99827.06
2023-01-05T06:09:59.497Z,99828.13
2023-01-05T06:12:25.870Z,99819.09
2023-01-05T06:14:52.238Z,99848.56
2023-01-05T06:17:18.551Z,99851.94
2023-01-05T06:19:44.856Z,99844.34
2023-01-05T06:22:11.160Z,99859.34
2023-01-05T06:24:37.465Z,99851.19
2023-01-05T06:27:03.769Z,99858.41
2023-01-05T06:29:30.111Z,99863.69
2023-01-05T06:31:56.483Z,99876.38
2023-01-05T06:34:22.790Z,99885.19
2023-01-05T06:36:49.091Z,99880.28
2023-01-05T06:39:15.591Z,99877.41
2023-01-05T06:41:41.898Z,99875.00
2023-01-05T06:44:09.403Z,99887.97
2023-01-05T06:46:35.706Z,99883.28
2023-01-05T06:49:02.016Z,99885.78
2023-01-05T06:51:28.353Z,99879.19
2023-01-05T06:53:54.691Z,99883.88
2023-01-05T06:56:20.968Z,99885.66
2023-01-05T06:58:47.330Z,99893.16
2023-01-05T07:01:13.759Z,99888.06
2023-01-05T07:03:40.222Z,99898.88
2023-01-05T07:06:11.381Z,99902.38
2023-01-05T07:08:41.488Z,99900.69
2023-01-05T07:11:07.883Z,99911.03
2023-01-05T07:13:34.182Z,99906.09
2023-01-05T07:16:00.617Z,99909.56
2023-01-05T07:18:26.924Z,99911.84
2023-01-05T07:20:53.335Z,99919.16
2023-01-05T07:23:20.245Z,99928.31
2023-01-05T07:25:46.528Z,99930.69
2023-01-05T07:28:12.880Z,99940.69
2023-01-05T07:30:39.192Z,99932.97
2023-01-05T07:33:05.638Z,99943.94
2023-01-05T07:35:32.587Z,99941.78
2023-01-05T07:37:58.903Z,99948.50
2023-01-05T07:40:25.267Z,99948.22
2023-01-05T07:42:54.758Z,99955.69
2023-01-05T07:45:21.375Z,99956.03
2023-01-05T07:47:47.711Z,99950.88
2023-01-05T07:50:14.122Z,99966.59
2023-01-05T07:52:40.483Z,99963.53
2023-01-05T07:55:07.190Z,99962.56
2023-01-05T07:57:33.533Z,99970.59
2023-01-05T07:59:59.859Z,99964.09
2023-01-05T08:02:32.286Z,99977.56
2023-01-05T08:05:01.926Z,99979.00
2023-01-05T08:07:28.254Z,99982.84
2023-01-05T08:10:13.109Z,99974.19
2023-01-05T08:12:59.404Z,99983.72
2023-01-05T08:15:25.777Z,99977.78
2023-01-05T08:17:52.116Z,99988.59
2023-01-05T08:20:18.557Z,99996.88
2023-01-05T08:22:50.192Z,99987.56
2023-01-05T08:25:16.995Z,100000.13
2023-01-05T08:27:43.309Z,100005.28
2023-01-05T08:30:11.194Z,100005.69
2023-01-05T08:32:38.369Z,100011.94
2023-01-05T08:35:05.121Z,100013.97
2023-01-05T08:37:31.482Z,100003.25
2023-01-05T08:39:57.956Z,100012.88
2023-01-05T08:42:24.346Z,100013.41
2023-01-05T08:44:50.700Z,100024.72
2023-01-05T08:47:18.390Z,100010.38
2023-01-05T08:49:44.841Z,100020.03
2023-01-05T08:52:11.190Z,100023.09
2023-01-05T08:54:37.492Z,100025.19
2023-01-05T08:57:03.998Z,100025.72
2023-01-05T08:59:30.289Z,100028.38
2023-01-05T09:01:56.823Z,100022.06
2023-01-05T09:04:24.334Z,100016.06
2023-01-05T09:06:50.837Z,100022.81
2023-01-05T09:09:17.117Z,100037.88
2023-01-05T09:11:43.447Z,100029.84
2023-01-05T09:14:14.250Z,100032.91
2023-01-05T09:19:27.297Z,100025.94
2023-01-05T09:21:53.976Z,100040.72
2023-01-05T09:24:20.369Z,100040.28
2023-01-05T09:26:46.935Z,100051.34
2023-01-05T09:29:13.398Z,100049.44
2023-01-05T09:31:40.838Z,100041.09
2023-01-05T09:34:07.283Z,100047.34
2023-01-05T09:36:33.596Z,100047.25
2023-01-05T09:39:00.260Z,100052.78
2023-01-05T09:41:34.972Z,100059.06
2023-01-05T09:44:27.835Z,100051.34
2023-01-05T09:46:57.570Z,100056.16
2023-01-05T09:49:25.479Z,100070.53
2023-01-05T09:51:57.852Z,100052.97
2023-01-05T09:54:27.170Z,100061.84
2023-01-05T09:57:11.148Z,100070.06
2023-01-05T10:00:03.814Z,100084.03
2023-01-05T10:02:37.211Z,100079.59
2023-01-05T10:05:05.693Z,100081.69
2023-01-05T10:07:40.839Z,100085.03
2023-01-05T10:10:33.068Z,100086.50
2023-01-05T10:13:03.891Z,100092.03
2023-01-05T10:15:35.060Z,100091.41
2023-01-05T10:18:10.686Z,100087.47
2023-01-05T10:20:46.148Z,100085.03
2023-01-05T10:23:47.975Z,100081.34
2023-01-05T10:27:13.943Z,100088.22
2023-01-05T10:29:37.711Z,100091.59
2023-01-05T10:32:29.448Z,100088.38
2023-01-05T10:34:58.928Z,100095.06
2023-01-05T10:38:15.647Z,100091.13
2023-01-05T10:41:04.346Z,100078.75
2023-01-05T10:43:49.404Z,100088.59
2023-01-05T10:46:32.599Z,100091.84
2023-01-05T10:49:06.158Z,100087.06
2023-01-05T10:51:35.264Z,100085.78
2023-01-05T10:54:03.464Z,100107.88
2023-01-05T10:56:30.552Z,100089.34
2023-01-05T10:59:11.313Z,100089.56
2023-01-05T11:01:42.810Z,100103.25
2023-01-05T11:04:30.564Z,100100.94
2023-01-05T11:07:05.502Z,100110.22
2023-01-05T11:09:32.168Z,100109.75
2023-01-05T11:12:01.556Z,100109.72
2023-01-05T11:14:36.651Z,100111.41
2023-01-05T11:17:06.723Z,100105.03
2023-01-05T11:19:41.137Z,100109.34
2023-01-05T11:22:34.044Z,100112.63
2023-01-05T11:25:34.372Z,100100.81
2023-01-05T11:28:09.781Z,100113.41
2023-01-05T11:30:38.067Z,100121.72
2023-01-05T11:33:17.387Z,100113.53
2023-01-05T11:35:46.412Z,100110.09
2023-01-05T11:38:23.678Z,100117.72
2023-01-05T11:40:56.006Z,100115.72
2023-01-05T11:43:25.715Z,100112.25
2023-01-05T11:45:55.563Z,100117.44
2023-01-05T11:48:27.338Z,100108.63
2023-01-05T11:50:56.446Z,100121.66
2023-01-05T11:53:37.137Z,100121.38
2023-01-05T11:56:20.271Z,100131.50
2023-01-05T11:59:00.251Z,100124.97
2023-01-05T12:01:42.039Z,100123.41
2023-01-05T12:04:46.004Z,100120.03
2023-01-05T12:07:34.384Z,100109.22
2023-01-05T12:10:23.469Z,100111.06
2023-01-05T12:13:06.454Z,100115.28
2023-01-05T12:16:11.206Z,100112.47
2023-01-05T12:19:28.035Z,100117.03
2023-01-05T12:22:36.039Z,100125.13
2023-01-05T12:25:30.923Z,100124.97
2023-01-05T12:28:42.620Z,100120.16
2023-01-05T12:34:42.561Z,100131.34
2023-01-05T12:37:24.211Z,100128.81
2023-01-05T12:40:03.318Z,100132.66
2023-01-05T12:43:09.020Z,100131.78
2023-01-05T12:45:51.576Z,100143.47
2023-01-05T12:48:36.735Z,100141.03
2023-01-05T12:51:18.335Z,100148.38
2023-01-05T12:53:54.611Z,100150.19
2023-01-05T12:56:20.954Z,100149.44
2023-01-05T12:59:24.935Z,100151.59
2023-01-05T13:02:10.249Z,100154.75
2023-01-05T13:04:56.535Z,100150.84
2023-01-05T13:07:32.199Z,100150.84
2023-01-05T13:10:12.219Z,100143.66
2023-01-05T13:12:39.909Z,100139.31
2023-01-05T13:15:12.005Z,100147.84
2023-01-05T13:17:44.302Z,100153.00
2023-01-05T13:20:23.622Z,100149.16
2023-01-05T13:22:56.494Z,100142.28
2023-01-05T13:25:27.304Z,100152.53
2023-01-05T13:27:53.668Z,100144.13
2023-01-05T13:30:30.005Z,100148.94
2023-01-05T13:33:11.531Z,100134.00
2023-01-05T13:35:46.571Z,100152.19
2023-01-05T13:38:31.799Z,100149.94
2023-01-05T13:41:07.208Z,100148.50
2023-01-05T13:43:57.022Z,100151.25
2023-01-05T13:46:50.146Z,100149.88
2023-01-05T13:49:45.622Z,100146.75
2023-01-05T13:52:20.651Z,100151.81
2023-01-05T13:55:00.758Z,100149.06
2023-01-05T13:57:37.123Z,100157.75
2023-01-05T14:00:11.849Z,100143.59
2023-01-05T14:02:46.084Z,100137.31
2023-01-05T14:05:30.484Z,100148.28
2023-01-05T14:07:59.407Z,100153.84
2023-01-05T14:10:29.543Z,100148.38
2023-01-05T14:12:56.385Z,100161.91
2023-01-05T14:15:32.113Z,100162.28
2023-01-05T14:18:03.096Z,100158.41
2023-01-05T14:20:53.699Z,100166.47
2023-01-05T14:23:29.608Z,100164.56
2023-01-05T14:26:06.811Z,100171.53
2023-01-05T14:28:36.099Z,100171.53
2023-01-05T14:31:11.084Z,100176.56
2023-01-05T14:33:51.766Z,100156.66
2023-01-05T14:36:31.372Z,100173.53
2023-01-05T14:38:59.751Z,100182.13
2023-01-05T14:41:28.576Z,100165.00
2023-01-05T14:44:03.139Z,100163.41
2023-01-05T14:46:46.258Z,100167.84
2023-01-05T14:49:35.450Z,100175.50
2023-01-05T14:52:05.089Z,100186.38
2023-01-05T14:55:07.054Z,100179.16
2023-01-05T14:57:49.864Z,100182.78
2023-01-05T15:03:19.862Z,100203.31
2023-01-05T15:05:54.973Z,100207.44
2023-01-05T15:08:45.629Z,100194.66
2023-01-05T15:11:34.485Z,100193.81
2023-01-05T15:14:35.142Z,100208.00
2023-01-05T15:17:24.122Z,100206.09
2023-01-05T15:20:09.861Z,100200.41
2023-01-05T15:23:01.408Z,100208.94
2023-01-05T15:25:57.828Z,100205.47
2023-01-05T15:28:48.260Z,100195.94
2023-01-05T15:31:51.991Z,100217.56
2023-01-05T15:34:42.544Z,100204.00
2023-01-05T15:37:20.414Z,100201.69
2023-01-05T15:39:49.462Z,100196.72
2023-01-05T15:42:25.192Z,100190.59
2023-01-05T15:44:54.057Z,100195.13
2023-01-05T15:47:25.028Z,100188.81
2023-01-05T15:49:56.118Z,100196.00
2023-01-05T15:52:31.751Z,100206.38
2023-01-05T15:55:10.491Z,100210.91
2023-01-05T15:57:37.033Z,100212.06
2023-01-05T16:00:17.084Z,100204.34
2023-01-05T16:02:43.484Z,100210.38
2023-01-05T16:05:23.838Z,100210.06
2023-01-05T16:07:59.556Z,100210.38
2023-01-05T16:10:40.030Z,100213.25
2023-01-05T16:13:14.574Z,100205.72
2023-01-05T16:15:42.414Z,100204.47
2023-01-05T16:18:15.870Z,100211.66
2023-01-05T16:20:46.665Z,100204.47
2023-01-05T16:23:20.450Z,100203.53
2023-01-05T16:25:54.139Z,100213.38
2023-01-05T16:28:22.549Z,100203.84
2023-01-05T16:30:50.151Z,100211.66
2023-01-05T16:33:46.775Z,100216.75
2023-01-05T16:36:21.924Z,100210.44
2023-01-05T16:38:48.652Z,100215.72
2023-01-05T16:41:26.471Z,100219.56
2023-01-05T16:44:00.958Z,100224.16
2023-01-05T16:46:29.261Z,100212.63
2023-01-05T16:48:58.034Z,100210.69
2023-01-05T16:51:33.514Z,100218.00
2023-01-05T16:54:24.396Z,100224.47
2023-01-05T16:56:57.844Z,100230.72
2023-01-05T16:59:41.926Z,100224.88
2023-01-05T17:02:29.935Z,100218.38
2023-01-05T17:04:56.526Z,100229.78
2023-01-05T17:07:25.791Z,100221.19
2023-01-05T17:09:52.799Z,100214.84
2023-01-05T17:12:19.525Z,100224.56
2023-01-05T17:14:46.549Z,100230.50
2023-01-05T17:17:13.653Z,100220.88
2023-01-05T17:19:40.792Z,100225.53
2023-01-05T17:22:10.359Z,100228.38
2023-01-05T17:24:38.467Z,100221.81
2023-01-05T17:27:04.852Z,100224.91
2023-01-05T17:29:33.077Z,100223.75
2023-01-05T17:31:59.646Z,100224.69
2023-01-05T17:34:26.189Z,100229.03
2023-01-05T17:36:55.965Z,100231.97
2023-01-05T17:39:23.287Z,100216.22
2023-01-05T17:41:50.007Z,100212.94
2023-01-05T17:44:17.043Z,100222.13
2023-01-05T17:46:45.270Z,100217.78
2023-01-05T17:49:14.968Z,100217.72
2023-01-05T17:51:41.309Z,100220.69
2023-01-05T17:54:07.785Z,100214.13
2023-01-05T17:56:34.099Z,100214.66
2023-01-05T17:59:00.651Z,100218.31
2023-01-05T18:01:26.954Z,100216.75
2023-01-05T18:03:53.248Z,100207.66
2023-01-05T18:06:19.772Z,100203.66
2023-01-05T18:08:46.199Z,100205.22
2023-01-05T18:11:12.926Z,100199.66
2023-01-05T18:13:39.486Z,100198.78
2023-01-05T18:16:11.693Z,100200.69
2023-01-05T18:18:38.028Z,100190.22
2023-01-05T18:21:05.180Z,100203.13
2023-01-05T18:23:32.214Z,100190.72
2023-01-05T18:26:07.072Z,100197.50
2023-01-05T18:28:33.502Z,100195.94
2023-01-05T18:31:00.874Z,100180.91
2023-01-05T18:33:27.653Z,100186.84
2023-01-05T18:38:21.430Z,100190.84
2023-01-05T18:40:49.743Z,100187.03
2023-01-05T18:43:16.814Z,100195.81
2023-01-05T18:45:43.458Z,100196.47
2023-01-05T18:48:09.851Z,100191.28
2023-01-05T18:50:41.050Z,100188.41
2023-01-05T18:53:07.317Z,100191.06
2023-01-05T18:55:33.645Z,100177.66
2023-01-05T18:57:59.975Z,100175.84
2023-01-05T19:00:26.359Z,100177.34
2023-01-05T19:02:52.679Z,100173.13
2023-01-05T19:05:19.059Z,100175.97
2023-01-05T19:07:45.372Z,100181.56
2023-01-05T19:10:11.757Z,100175.19
2023-01-05T19:12:38.142Z,100172.78
2023-01-05T19:15:04.864Z,100167.91
2023-01-05T19:17:33.469Z,100163.06
2023-01-05T19:19:59.772Z,100166.56
2023-01-05T19:22:26.260Z,100162.00
2023-01-05T19:24:52.601Z,100171.41
2023-01-05T19:27:18.947Z,100163.59
2023-01-05T19:29:45.281Z,100166.75
2023-01-05T19:32:11.647Z,100154.06
2023-01-05T19:34:38.293Z,100166.75
2023-01-05T19:37:06.150Z,100165.69
2023-01-05T19:39:32.480Z,100166.75
2023-01-05T19:41:58.885Z,100167.47
2023-01-05T19:44:26.762Z,100171.50
2023-01-05T19:46:53.933Z,100159.34
2023-01-05T19:49:26.791Z,100156.28
2023-01-05T19:51:54.122Z,100157.34
2023-01-05T19:54:22.418Z,100145.91
2023-01-05T19:56:48.908Z,100155.22
2023-01-05T19:59:17.669Z,100153.66
2023-01-05T20:01:44.459Z,100151.63
2023-01-05T20:04:11.036Z,100145.09
2023-01-05T20:06:40.731Z,100149.94
2023-01-05T20:09:10.461Z,100147.19
2023-01-05T20:11:40.052Z,100147.19
2023-01-05T20:14:12.233Z,100152.47
2023-01-05T20:16:39.882Z,100146.13
2023-01-05T20:19:06.936Z,100140.97
2023-01-05T20:21:33.580Z,100145.50
2023-01-05T20:24:01.268Z,100144.44
2023-01-05T20:26:29.650Z,100134.59
2023-01-05T20:28:59.964Z,100134.41
2023-01-05T20:31:33.538Z,100130.88
2023-01-05T20:34:03.366Z,100135.75
2023-01-05T20:36:30.678Z,100129.09
2023-01-05T20:38:58.534Z,100149.94
2023-01-05T20:41:27.908Z,100145.72
2023-01-05T20:43:55.410Z,100144.63
2023-01-05T20:46:25.665Z,100143.56
2023-01-05T20:48:53.427Z,100147.38
2023-01-05T20:51:21.633Z,100139.34
2023-01-05T20:53:49.726Z,100124.84
2023-01-05T20:56:19.956Z,100141.03
2023-01-05T20:58:47.225Z,100144.44
2023-01-05T21:01:14.550Z,100144.44
2023-01-05T21:03:41.652Z,100132.38
2023-01-05T21:06:10.471Z,100133.31
2023-01-05T21:08:37.607Z,100133.84
2023-01-05T21:11:05.784Z,100131.69
2023-01-05T21:13:33.192Z,100140.59
2023-01-05T21:16:04.961Z,100137.19
2023-01-05T21:18:33.198Z,100141.53
2023-01-05T21:21:00.170Z,100141.25
2023-01-05T21:23:26.469Z,100132.78
2023-01-05T21:26:05.703Z,100146.63
2023-01-05T21:28:37.867Z,100138.69
2023-01-05T21:31:07.260Z,100139.97
2023-01-05T21:33:34.345Z,100134.69
2023-01-05T21:36:00.848Z,100142.41
2023-01-05T21:38:27.217Z,100139.63
2023-01-05T21:41:14.079Z,100128.09
2023-01-05T21:43:40.764Z,100121.78
2023-01-05T21:46:09.999Z,100132.22
2023-01-05T21:48:36.393Z,100133.59
2023-01-05T21:51:21.549Z,100131.69
2023-01-05T21:54:08.112Z,100126.06
2023-01-05T21:56:39.993Z,100106.88
2023-01-05T21:59:09.404Z,100113.19
2023-01-05T22:01:40.704Z,100109.72
2023-01-05T22:04:07.170Z,100120.69
2023-01-05T22:06:33.538Z,100123.34
2023-01-05T22:08:59.879Z,100120.09
2023-01-05T22:11:26.231Z,100111.06
2023-01-05T22:13:52.599Z,100110.88
2023-01-05T22:16:19.035Z,100101.44
2023-01-05T22:18:45.804Z,100097.72
2023-01-05T22:21:14.696Z,100096.47
2023-01-05T22:23:41.055Z,100091.50
2023-01-05T22:26:10.085Z,100088.97
2023-01-05T22:28:38.946Z,100093.63
2023-01-05T22:31:08.483Z,100086.97
2023-01-05T22:33:37.171Z,100096.25
2023-01-05T22:36:04.903Z,100100.72
2023-01-05T22:38:34.972Z,100096.78
2023-01-05T22:41:02.954Z,100087.28
2023-01-05T22:43:29.544Z,100094.06
2023-01-05T22:46:04.057Z,100093.22
2023-01-05T22:48:35.169Z,100088.00
2023-01-05T22:51:02.386Z,100084.63
2023-01-05T22:53:28.712Z,100087.38
2023-01-05T22:55:55.016Z,100080.28
2023-01-05T22:58:21.385Z,100077.22
2023-01-05T23:00:47.708Z,100087.50
2023-01-05T23:03:14.046Z,100071.72
2023-01-05T23:05:40.453Z,100080.50
2023-01-05T23:08:06.781Z,100079.66
2023-01-05T23:10:33.159Z,100074.38
2023-01-05T23:12:59.491Z,100084.50
2023-01-05T23:15:25.814Z,100081.13
2023-01-05T23:17:52.137Z,100074.16
2023-01-05T23:20:18.556Z,100077.88
2023-01-05T23:22:44.996Z,100067.03
2023-01-05T23:25:11.332Z,100066.94
2023-01-05T23:27:38.224Z,100059.00
2023-01-05T23:30:05.859Z,100055.28
2023-01-05T23:32:32.163Z,100056.16
2023-01-05T23:34:58.519Z,100051.16
2023-01-05T23:37:24.898Z,100054.56
2023-01-05T23:39:51.290Z,100042.78
2023-01-05T23:42:36.414Z,100047.75
2023-01-05T23:45:02.943Z,100045.22
2023-01-05T23:47:29.256Z,100038.03
2023-01-05T23:49:55.597Z,100049.00
2023-01-05T23:52:21.871Z,100045.50
2023-01-05T23:54:48.171Z,100037.44
2023-01-05T23:57:14.479Z,100026.97
2023-01-05T23:59:40.898Z,100032.13
